Time;durP1;ratioP1;P1;durP2;ratioP2;P2;SDS_P1;SDS_P2;PMS_P1;PMS_P2;Temp;Humidity;BMP_temperature;BMP_pressure;BME280_temperature;BME280_humidity;BME280_pressure;Samples;Min_cycle;Max_cycle;Signal;HPM_P1;HPM_P2
2023/12/15 08:40:44;;;;;;;22.30;11.95;;;;;;;3.15;100.00;98273.03;2083778;28;20573;-61
2023/12/15 08:41:46;;;;;;;23.17;11.25;;;;;;;3.22;100.00;98265.38;2080684;28;20209;-61
2023/12/15 08:42:48;;;;;;;25.73;13.45;;;;;;;3.46;100.00;98273.38;2080186;28;20197;-60
2023/12/15 08:43:49;;;;;;;26.08;13.85;;;;;;;3.84;100.00;98263.38;2083051;28;20704;-60
2023/12/15 08:44:50;;;;;;;21.70;11.18;;;;;;;4.56;100.00;98268.16;2068636;28;20230;-60
2023/12/15 08:45:52;;;;;;;16.45;9.65;;;;;;;5.38;100.00;98265.00;2061000;28;20248;-61
2023/12/15 08:46:54;;;;;;;17.13;9.55;;;;;;;5.68;96.50;98263.31;2063515;28;20227;-61
2023/12/15 08:47:55;;;;;;;17.98;8.60;;;;;;;5.69;95.63;98275.41;2062983;28;20208;-61
2023/12/15 08:48:56;;;;;;;17.77;9.25;;;;;;;5.66;95.09;98271.09;2062764;28;20652;-61
2023/12/15 08:49:58;;;;;;;15.63;8.20;;;;;;;5.30;94.83;98271.91;2068781;28;20224;-61
2023/12/15 08:51:00;;;;;;;16.58;8.40;;;;;;;4.92;96.35;98276.06;2072295;28;20204;-61
2023/12/15 08:52:01;;;;;;;14.98;8.15;;;;;;;4.65;96.70;98282.88;2072128;28;20210;-61
2023/12/15 08:53:03;;;;;;;13.80;8.30;;;;;;;4.45;97.95;98276.72;2069635;28;20202;-58
2023/12/15 08:54:05;;;;;;;11.35;7.25;;;;;;;4.43;98.77;98281.00;2070036;28;20211;-58
2023/12/15 08:55:07;;;;;;;15.77;8.27;;;;;;;4.32;99.05;98279.22;2073709;28;20248;-58
2023/12/15 08:56:09;;;;;;;16.50;8.13;;;;;;;4.18;99.39;98284.31;2070210;28;20198;-58
2023/12/15 09:09:05;;;;;;;14.90;8.02;;;;;;;3.60;100.00;98301.03;2084982;28;20556;-55
2023/12/15 09:10:07;;;;;;;19.27;8.98;;;;;;;3.66;100.00;98302.00;2077522;28;20315;-56
2023/12/15 09:18:37;;;;;;;15.13;8.85;;;;;;;3.51;100.00;98297.53;2100811;27;20560;-56
2023/12/15 09:19:40;;;;;;;14.60;8.45;;;;;;;3.62;100.00;98307.94;2087047;28;20315;-56
2023/12/15 09:33:09;;;;;;;17.90;8.90;;;;;;;3.24;100.00;98315.31;2084683;28;20908;-63
2023/12/15 09:40:50;;;;;;;17.58;10.20;;;;;;;3.46;100.00;98323.31;2082874;28;20563;-62
2023/12/15 09:54:59;;;;;;;16.75;9.48;;;;;;;3.53;100.00;98334.56;2076516;28;20561;-64
2023/12/15 09:59:56;;;;;;;14.63;8.15;;;;;;;3.79;100.00;98342.56;2078215;28;20571;-63
2023/12/15 10:00:58;;;;;;;17.15;8.65;;;;;;;3.90;100.00;98334.94;2069843;28;20208;-64
2023/12/15 10:02:00;;;;;;;18.17;10.00;;;;;;;3.91;100.00;98334.06;2070651;28;20284;-58
2023/12/15 10:03:02;;;;;;;18.88;8.30;;;;;;;4.03;100.00;98343.66;2074576;28;20198;-58
2023/12/15 10:04:06;;;;;;;17.40;9.43;;;;;;;4.15;100.00;98342.88;2076424;28;20213;-58
2023/12/15 10:10:42;;;;;;;28.75;10.95;;;;;;;4.06;100.00;98333.34;2084736;28;20928;-56
2023/12/15 10:11:44;;;;;;;16.90;9.30;;;;;;;4.08;100.00;98344.56;2081841;28;20208;-57
2023/12/15 10:12:46;;;;;;;20.75;8.77;;;;;;;4.03;100.00;98341.06;2082136;28;20193;-58
2023/12/15 10:18:08;;;;;;;18.30;9.10;;;;;;;4.12;100.00;98358.38;2100384;27;20564;-56
2023/12/15 10:19:10;;;;;;;16.92;9.98;;;;;;;4.19;100.00;98355.88;2095725;28;20202;-58
2023/12/15 10:20:12;;;;;;;15.10;7.97;;;;;;;4.15;100.00;98355.81;2077405;27;20307;-56
2023/12/15 10:21:14;;;;;;;17.85;9.13;;;;;;;4.20;100.00;98357.59;2077501;28;20297;-57
2023/12/15 10:22:15;;;;;;;15.65;7.38;;;;;;;4.28;100.00;98359.38;2078858;28;20656;-57
2023/12/15 10:23:28;;;;;;;11.35;7.47;;;;;;;4.31;100.00;98352.50;2079690;28;20254;-56
2023/12/15 10:24:33;;;;;;;14.45;8.30;;;;;;;4.35;100.00;98356.84;2084451;28;20203;-57
2023/12/15 10:25:35;;;;;;;15.45;8.50;;;;;;;4.46;100.00;98358.66;2089929;28;20200;-57
2023/12/15 10:26:36;;;;;;;15.98;9.75;;;;;;;4.50;100.00;98360.41;2089422;28;20203;-57
2023/12/15 10:27:38;;;;;;;12.20;8.15;;;;;;;4.63;100.00;98357.03;2089279;28;20192;-57
2023/12/15 10:28:40;;;;;;;13.07;7.40;;;;;;;4.62;100.00;98367.38;2087481;28;20280;-57
2023/12/15 10:29:42;;;;;;;14.30;7.85;;;;;;;4.63;99.85;98356.16;2084138;28;20216;-56
2023/12/15 10:30:43;;;;;;;22.90;7.93;;;;;;;4.70;99.12;98356.22;2088519;28;20669;-57
2023/12/15 10:31:46;;;;;;;17.80;7.93;;;;;;;4.74;99.79;98367.47;2088241;28;20200;-57
2023/12/15 10:32:48;;;;;;;18.55;8.55;;;;;;;4.73;99.88;98357.97;2088587;28;20326;-57
2023/12/15 10:33:50;;;;;;;13.07;6.80;;;;;;;4.68;99.89;98364.81;2088249;28;20195;-57
2023/12/15 10:34:52;;;;;;;10.82;6.55;;;;;;;4.69;99.50;98351.03;2086899;28;20226;-57
2023/12/15 10:35:53;;;;;;;12.73;6.63;;;;;;;4.58;99.37;98364.78;2088041;28;20283;-57
2023/12/15 10:36:55;;;;;;;19.17;6.70;;;;;;;4.61;98.90;98357.88;2087281;28;20194;-57
2023/12/15 10:37:57;;;;;;;19.05;7.93;;;;;;;4.67;100.00;98355.31;2085542;28;20564;-57
2023/12/15 10:39:01;;;;;;;14.73;6.57;;;;;;;4.64;99.38;98353.59;2087310;28;20272;-57
2023/12/15 10:40:04;;;;;;;11.05;6.30;;;;;;;4.69;98.46;98358.81;2103233;28;20287;-56
2023/12/15 10:41:09;;;;;;;10.73;5.78;;;;;;;4.73;98.82;98357.97;2096016;28;20257;-57
2023/12/15 10:42:11;;;;;;;11.23;6.28;;;;;;;4.74;99.80;98360.53;2088574;28;20200;-57
2023/12/15 10:43:13;;;;;;;13.60;6.20;;;;;;;4.81;100.00;98360.59;2084167;28;20238;-57
2023/12/15 10:44:15;;;;;;;10.68;6.32;;;;;;;4.68;99.03;98357.91;2087378;28;20643;-57
2023/12/15 10:45:19;;;;;;;9.73;4.95;;;;;;;4.68;97.72;98364.81;2084645;28;20231;-57
2023/12/15 10:46:21;;;;;;;9.60;4.65;;;;;;;4.71;98.40;98363.13;2093028;28;20231;-57
2023/12/15 10:48:54;;;;;;;10.80;5.00;;;;;;;4.69;96.71;98356.22;2082563;28;20550;-56
2023/12/15 10:49:58;;;;;;;12.07;5.57;;;;;;;4.62;96.33;98360.50;2075140;28;20684;-57
2023/12/15 10:51:02;;;;;;;14.05;4.72;;;;;;;4.68;97.03;98354.47;2076819;28;20669;-56
2023/12/15 10:53:24;;;;;;;11.68;5.40;;;;;;;4.81;97.10;98360.59;2083512;28;20552;-59
2023/12/15 10:54:27;;;;;;;7.47;4.70;;;;;;;4.78;96.73;98358.84;2080320;28;20197;-58
2023/12/15 10:55:29;;;;;;;7.63;4.15;;;;;;;4.82;96.40;98357.16;2077683;28;20200;-59
2023/12/15 10:56:32;;;;;;;9.52;4.45;;;;;;;4.93;96.25;98357.19;2079948;28;20205;-59
2023/12/15 10:57:33;;;;;;;8.10;4.30;;;;;;;4.91;95.44;98346.84;2069573;28;20197;-59
2023/12/15 10:58:35;;;;;;;7.28;4.35;;;;;;;4.91;95.56;98359.78;2071231;28;20198;-58
2023/12/15 10:59:39;;;;;;;10.18;3.90;;;;;;;4.89;95.52;98349.41;2071484;28;20224;-59
2023/12/15 11:00:41;;;;;;;14.55;4.30;;;;;;;4.99;95.48;98352.03;2073035;28;20468;-59
2023/12/15 11:01:46;;;;;;;8.57;4.50;;;;;;;5.07;95.14;98359.00;2069883;28;20237;-59
2023/12/15 11:02:48;;;;;;;6.13;3.72;;;;;;;5.06;94.43;98351.22;2071507;28;20220;-59
2023/12/15 11:03:49;;;;;;;9.65;3.65;;;;;;;5.16;94.15;98354.72;2071693;28;20194;-59
2023/12/15 11:04:51;;;;;;;8.32;3.60;;;;;;;5.22;93.97;98355.63;2069476;28;20317;-59
2023/12/15 11:05:55;;;;;;;7.53;3.83;;;;;;;5.39;93.67;98349.63;2071641;28;20198;-59
2023/12/15 11:06:56;;;;;;;4.82;3.47;;;;;;;5.40;92.72;98346.19;2069776;28;20255;-59
2023/12/15 11:07:59;;;;;;;8.38;3.88;;;;;;;5.39;93.64;98353.06;2071233;28;20562;-65
2023/12/15 11:09:04;;;;;;;8.77;3.92;;;;;;;5.42;93.54;98353.94;2070667;28;20194;-63
2023/12/15 11:10:09;;;;;;;6.72;4.00;;;;;;;5.56;94.23;98360.91;2069350;28;20230;-64
2023/12/15 11:11:21;;;;;;;5.60;2.90;;;;;;;5.39;93.04;98349.63;2070095;28;20247;-64
2023/12/15 11:12:33;;;;;;;6.63;3.20;;;;;;;5.43;92.77;98358.28;2069153;28;20198;-64
2023/12/15 11:14:07;;;;;;;5.78;3.05;;;;;;;5.42;92.64;98365.16;2072762;28;20265;-64
2023/12/15 11:15:13;;;;;;;4.15;2.42;;;;;;;5.27;92.42;98341.81;2069148;28;20297;-64
2023/12/15 11:16:17;;;;;;;6.10;2.67;;;;;;;5.41;92.21;98363.47;2069535;28;20210;-64
2023/12/15 11:17:18;;;;;;;3.85;2.20;;;;;;;5.42;93.37;98372.94;2069229;28;20742;-64
2023/12/15 11:18:20;;;;;;;4.07;1.95;;;;;;;5.55;92.93;98373.88;2070206;28;20795;-64
2023/12/15 11:19:22;;;;;;;4.75;1.90;;;;;;;5.63;93.70;98361.78;2068543;28;20793;-64
2023/12/15 11:20:25;;;;;;;5.97;2.42;;;;;;;5.80;93.33;98366.16;2067900;28;20242;-64
2023/12/15 11:21:28;;;;;;;5.10;2.40;;;;;;;5.86;93.51;98371.34;2072441;28;20202;-64
2023/12/15 11:22:40;;;;;;;4.07;1.85;;;;;;;5.88;92.99;98370.47;2070625;28;20277;-64
2023/12/15 11:23:49;;;;;;;4.25;1.73;;;;;;;5.67;92.63;98360.94;2068708;28;21012;-64
2023/12/15 11:24:50;;;;;;;4.38;2.20;;;;;;;5.79;92.06;98374.78;2068014;28;20223;-65
2023/12/15 11:25:58;;;;;;;3.97;1.50;;;;;;;5.81;92.57;98375.66;2069189;28;20210;-64
2023/12/15 11:27:00;;;;;;;2.22;1.30;;;;;;;5.83;90.76;98379.97;2070678;28;20260;-64
2023/12/15 11:28:15;;;;;;;3.25;1.45;;;;;;;5.89;91.21;98372.22;2067667;28;20310;-64
2023/12/15 11:29:19;;;;;;;6.32;1.55;;;;;;;6.25;91.22;98382.66;2069871;28;20599;-64
2023/12/15 11:30:34;;;;;;;2.25;1.10;;;;;;;6.31;90.84;98380.06;2064260;28;20617;-65
2023/12/15 11:31:36;;;;;;;4.47;1.23;;;;;;;6.41;91.12;98373.13;2068513;28;20214;-65
2023/12/15 11:32:38;;;;;;;3.88;1.48;;;;;;;6.51;89.48;98374.00;2068582;28;20293;-65
2023/12/15 11:33:40;;;;;;;3.30;1.63;;;;;;;6.41;88.73;98380.06;2070062;28;20212;-65
2023/12/15 11:34:43;;;;;;;3.33;1.63;;;;;;;6.51;89.70;98377.47;2069085;28;20374;-67
2023/12/15 11:35:51;;;;;;;4.43;1.90;;;;;;;6.52;88.98;98374.00;2069284;28;20210;-67
2023/12/15 11:36:54;;;;;;;2.35;1.38;;;;;;;6.59;89.00;98381.78;2069062;28;20206;-67
2023/12/15 11:37:57;;;;;;;3.17;1.40;;;;;;;6.50;89.30;98377.44;2069254;28;20198;-67
2023/12/15 11:38:59;;;;;;;3.78;1.42;;;;;;;6.42;88.63;98374.88;2069077;28;20256;-61
2023/12/15 11:40:01;;;;;;;3.67;1.50;;;;;;;6.37;89.05;98374.88;2068315;28;20229;-65
2023/12/15 11:41:03;;;;;;;4.55;1.70;;;;;;;6.60;89.39;98380.91;2069279;28;20217;-64
2023/12/15 11:42:05;;;;;;;4.97;1.67;;;;;;;6.57;89.29;98374.00;2062339;28;20213;-65
2023/12/15 11:43:07;;;;;;;3.92;1.55;;;;;;;6.61;88.20;98388.69;2063118;28;20201;-64
2023/12/15 11:44:08;;;;;;;2.95;1.52;;;;;;;6.14;87.75;98372.25;2069499;28;20198;-64
2023/12/15 11:45:11;;;;;;;3.05;1.52;;;;;;;6.04;88.48;98380.91;2069949;28;20719;-64
2023/12/15 11:46:12;;;;;;;4.70;1.50;;;;;;;5.95;89.13;98392.09;2069096;28;20290;-64
2023/12/15 11:47:14;;;;;;;2.20;1.58;;;;;;;5.96;89.63;98387.78;2068144;28;20259;-64
2023/12/15 11:48:16;;;;;;;5.03;2.05;;;;;;;5.86;90.76;98381.72;2069120;28;20300;-58
2023/12/15 11:49:24;;;;;;;2.53;1.33;;;;;;;5.93;90.50;98392.97;2069359;28;20701;-58
2023/12/15 11:50:26;;;;;;;2.67;1.63;;;;;;;5.95;89.82;98383.47;2068811;28;20268;-58
2023/12/15 11:51:30;;;;;;;2.33;1.45;;;;;;;6.04;91.03;98380.91;2069684;28;20203;-58
2023/12/15 11:52:34;;;;;;;5.63;2.00;;;;;;;6.02;91.22;98386.09;2072842;28;20203;-58
2023/12/15 11:53:39;;;;;;;3.97;1.75;;;;;;;5.93;90.63;98383.47;2073442;28;20244;-58
2023/12/15 11:54:41;;;;;;;3.00;1.58;;;;;;;5.82;91.38;98382.59;2070997;28;20908;-58
2023/12/15 11:55:45;;;;;;;3.35;1.60;;;;;;;5.73;91.05;98386.88;2070744;28;20307;-58
2023/12/15 11:56:47;;;;;;;4.00;1.30;;;;;;;5.65;90.83;98382.53;2070446;28;20200;-58
2023/12/15 11:57:50;;;;;;;2.88;1.40;;;;;;;5.68;91.36;98391.19;2071455;28;20596;-58
2023/12/15 11:58:52;;;;;;;4.13;1.23;;;;;;;5.47;91.77;98386.81;2067128;28;20302;-61
2023/12/15 11:59:53;;;;;;;2.03;1.17;;;;;;;5.51;92.06;98392.84;2067976;28;20218;-60
2023/12/15 12:00:55;;;;;;;2.97;1.60;;;;;;;5.46;92.83;98392.84;2070899;28;20658;-60
2023/12/15 12:01:57;;;;;;;8.40;1.60;;;;;;;5.34;92.81;98388.47;2070458;28;20202;-60
2023/12/15 12:02:59;;;;;;;3.60;1.77;;;;;;;5.32;93.60;98389.31;2070989;28;20283;-61
2023/12/15 12:04:00;;;;;;;1.92;0.90;;;;;;;5.22;93.07;98391.88;2068628;28;20534;-60
2023/12/15 12:05:02;;;;;;;2.65;1.35;;;;;;;5.28;93.94;98396.25;2063380;28;20275;-60
2023/12/15 12:06:08;;;;;;;5.05;1.50;;;;;;;5.10;93.10;98389.22;2065054;28;20586;-60
2023/12/15 12:07:11;;;;;;;2.25;1.17;;;;;;;5.26;93.18;98390.16;2064572;28;20215;-60
2023/12/15 12:17:39;;;;;;;2.90;1.45;;;;;;;5.33;97.01;98397.13;2083489;28;20899;-57
2023/12/15 12:18:41;;;;;;;2.58;1.45;;;;;;;5.26;95.95;98394.47;2081398;28;20220;-58
2023/12/15 12:27:44;;;;;;;2.65;1.60;;;;;;;5.18;98.17;98374.59;2094215;27;20550;-65
2023/12/15 12:34:54;;;;;;;6.05;2.15;;;;;;;5.32;99.05;98382.44;2082601;28;20570;-59
2023/12/15 12:41:12;;;;;;;7.68;1.80;;;;;;;5.12;98.48;98348.66;2084173;28;20869;-58
2023/12/15 12:46:52;;;;;;;3.25;1.38;;;;;;;5.43;98.11;98381.59;2090874;28;21273;-65
2023/12/15 12:47:53;;;;;;;4.63;1.30;;;;;;;5.60;98.32;98390.31;2081400;28;20211;-65
2023/12/15 12:55:48;;;;;;;4.50;2.00;;;;;;;5.39;98.65;98397.13;2102983;27;20556;-65
2023/12/15 13:03:38;;;;;;;6.40;2.08;;;;;;;5.31;97.54;98388.47;2092475;27;20583;-59
